sensor_id;sensor_type;location;lat;lon;timestamp;pressure;altitude;pressure_sealevel;temperature;humidity
5691;BME280;2870;42.680;23.364;2023-04-09T00:01:03;95335.16;;;7.86;97.74
5691;BME280;2870;42.680;23.364;2023-04-09T00:03:31;95332.47;;;8.07;96.14
5691;BME280;2870;42.680;23.364;2023-04-09T00:05:58;95337.31;;;7.80;97.44
5691;BME280;2870;42.680;23.364;2023-04-09T00:08:25;95334.63;;;7.87;97.27
5691;BME280;2870;42.680;23.364;2023-04-09T00:10:53;95336.56;;;8.06;97.30
5691;BME280;2870;42.680;23.364;2023-04-09T00:13:20;95345.16;;;7.81;97.85
5691;BME280;2870;42.680;23.364;2023-04-09T00:15:47;95337.22;;;7.85;98.11
5691;BME280;2870;42.680;23.364;2023-04-09T00:18:14;95344.09;;;7.84;97.61
5691;BME280;2870;42.680;23.364;2023-04-09T00:20:42;95337.84;;;7.78;97.77
5691;BME280;2870;42.680;23.364;2023-04-09T00:23:09;95353.31;;;7.79;97.99
5691;BME280;2870;42.680;23.364;2023-04-09T00:25:36;95346.84;;;7.71;99.15
5691;BME280;2870;42.680;23.364;2023-04-09T00:28:04;95343.09;;;7.68;99.14
5691;BME280;2870;42.680;23.364;2023-04-09T00:30:31;95348.13;;;7.70;99.31
5691;BME280;2870;42.680;23.364;2023-04-09T00:32:58;95353.53;;;7.81;98.79
5691;BME280;2870;42.680;23.364;2023-04-09T00:35:25;95334.84;;;7.89;97.82
5691;BME280;2870;42.680;23.364;2023-04-09T00:37:52;95347.75;;;8.06;96.75
5691;BME280;2870;42.680;23.364;2023-04-09T00:40:18;95343.44;;;7.91;97.60
5691;BME280;2870;42.680;23.364;2023-04-09T00:42:45;95343.84;;;7.69;97.83
5691;BME280;2870;42.680;23.364;2023-04-09T00:45:13;95339.34;;;7.66;98.75
5691;BME280;2870;42.680;23.364;2023-04-09T00:47:40;95337.81;;;7.65;98.68
5691;BME280;2870;42.680;23.364;2023-04-09T00:50:10;95342.34;;;7.68;98.88
5691;BME280;2870;42.680;23.364;2023-04-09T00:52:36;95335.28;;;7.80;98.25
5691;BME280;2870;42.680;23.364;2023-04-09T00:55:04;95337.41;;;7.87;98.00
5691;BME280;2870;42.680;23.364;2023-04-09T00:57:31;95328.81;;;7.85;97.68
5691;BME280;2870;42.680;23.364;2023-04-09T00:59:58;95342.16;;;7.79;97.75
5691;BME280;2870;42.680;23.364;2023-04-09T01:02:27;95339.25;;;7.85;97.83
5691;BME280;2870;42.680;23.364;2023-04-09T01:04:55;95338.16;;;7.88;97.03
5691;BME280;2870;42.680;23.364;2023-04-09T01:07:30;95334.06;;;7.76;97.03
5691;BME280;2870;42.680;23.364;2023-04-09T01:10:06;95336.78;;;7.68;98.04
5691;BME280;2870;42.680;23.364;2023-04-09T01:12:45;95320.22;;;7.57;97.28
5691;BME280;2870;42.680;23.364;2023-04-09T01:15:17;95349.44;;;7.69;97.31
5691;BME280;2870;42.680;23.364;2023-04-09T01:17:52;95345.34;;;7.70;96.53
5691;BME280;2870;42.680;23.364;2023-04-09T01:20:25;95346.66;;;7.82;96.48
5691;BME280;2870;42.680;23.364;2023-04-09T01:23:03;95348.16;;;7.83;95.97
5691;BME280;2870;42.680;23.364;2023-04-09T01:25:43;95348.56;;;7.61;97.62
5691;BME280;2870;42.680;23.364;2023-04-09T01:28:16;95340.84;;;7.67;97.20
5691;BME280;2870;42.680;23.364;2023-04-09T01:30:47;95350.63;;;7.74;97.13
5691;BME280;2870;42.680;23.364;2023-04-09T01:33:16;95351.31;;;7.48;97.85
5691;BME280;2870;42.680;23.364;2023-04-09T01:35:45;95344.88;;;7.39;98.23
5691;BME280;2870;42.680;23.364;2023-04-09T01:38:15;95350.06;;;7.62;97.18
5691;BME280;2870;42.680;23.364;2023-04-09T01:40:44;95359.03;;;7.41;98.61
5691;BME280;2870;42.680;23.364;2023-04-09T01:43:12;95363.44;;;7.37;99.30
5691;BME280;2870;42.680;23.364;2023-04-09T01:45:41;95354.13;;;7.48;99.06
5691;BME280;2870;42.680;23.364;2023-04-09T01:48:10;95355.41;;;7.47;98.84
5691;BME280;2870;42.680;23.364;2023-04-09T01:50:37;95354.34;;;7.50;99.18
5691;BME280;2870;42.680;23.364;2023-04-09T01:53:05;95356.50;;;7.57;98.90
5691;BME280;2870;42.680;23.364;2023-04-09T01:55:32;95353.97;;;7.72;98.56
5691;BME280;2870;42.680;23.364;2023-04-09T01:58:00;95353.22;;;7.72;97.78
5691;BME280;2870;42.680;23.364;2023-04-09T02:00:37;95353.63;;;7.62;97.70
5691;BME280;2870;42.680;23.364;2023-04-09T02:03:09;95347.03;;;7.47;97.66
5691;BME280;2870;42.680;23.364;2023-04-09T02:05:41;95343.00;;;7.61;98.27
5691;BME280;2870;42.680;23.364;2023-04-09T02:08:11;95351.78;;;7.65;97.26
5691;BME280;2870;42.680;23.364;2023-04-09T02:10:44;95347.25;;;7.49;98.17
5691;BME280;2870;42.680;23.364;2023-04-09T02:13:18;95350.88;;;7.30;98.70
5691;BME280;2870;42.680;23.364;2023-04-09T02:15:46;95348.97;;;7.38;98.59
5691;BME280;2870;42.680;23.364;2023-04-09T02:18:27;95345.72;;;7.34;98.22
5691;BME280;2870;42.680;23.364;2023-04-09T02:20:56;95329.81;;;7.16;98.01
5691;BME280;2870;42.680;23.364;2023-04-09T02:23:24;95356.03;;;7.26;98.14
5691;BME280;2870;42.680;23.364;2023-04-09T02:25:52;95346.13;;;7.25;98.60
5691;BME280;2870;42.680;23.364;2023-04-09T02:28:19;95345.16;;;7.23;98.34
5691;BME280;2870;42.680;23.364;2023-04-09T02:30:46;95347.22;;;7.03;98.78
5691;BME280;2870;42.680;23.364;2023-04-09T02:33:12;95348.03;;;7.17;98.69
5691;BME280;2870;42.680;23.364;2023-04-09T02:35:41;95357.69;;;7.16;98.62
5691;BME280;2870;42.680;23.364;2023-04-09T02:38:08;95355.34;;;7.20;98.91
5691;BME280;2870;42.680;23.364;2023-04-09T02:40:38;95350.03;;;7.35;97.93
5691;BME280;2870;42.680;23.364;2023-04-09T02:43:05;95341.75;;;7.43;97.59
5691;BME280;2870;42.680;23.364;2023-04-09T02:45:32;95341.88;;;7.37;96.78
5691;BME280;2870;42.680;23.364;2023-04-09T02:47:59;95333.91;;;7.28;97.11
5691;BME280;2870;42.680;23.364;2023-04-09T02:50:26;95345.19;;;7.36;96.59
5691;BME280;2870;42.680;23.364;2023-04-09T02:52:54;95350.66;;;7.28;96.82
5691;BME280;2870;42.680;23.364;2023-04-09T02:55:21;95342.91;;;7.21;97.51
5691;BME280;2870;42.680;23.364;2023-04-09T02:57:48;95348.72;;;7.36;97.00
5691;BME280;2870;42.680;23.364;2023-04-09T03:00:15;95341.97;;;7.32;96.68
5691;BME280;2870;42.680;23.364;2023-04-09T03:02:42;95343.19;;;7.04;98.30
5691;BME280;2870;42.680;23.364;2023-04-09T03:05:09;95333.56;;;6.86;99.72
5691;BME280;2870;42.680;23.364;2023-04-09T03:07:36;95337.38;;;7.02;99.24
5691;BME280;2870;42.680;23.364;2023-04-09T03:10:04;95333.34;;;7.16;98.57
5691;BME280;2870;42.680;23.364;2023-04-09T03:12:31;95341.06;;;6.91;99.52
5691;BME280;2870;42.680;23.364;2023-04-09T03:14:58;95343.19;;;7.04;99.16
5691;BME280;2870;42.680;23.364;2023-04-09T03:17:25;95337.03;;;6.93;99.07
5691;BME280;2870;42.680;23.364;2023-04-09T03:19:52;95337.72;;;7.12;99.13
5691;BME280;2870;42.680;23.364;2023-04-09T03:22:19;95326.03;;;6.81;99.22
5691;BME280;2870;42.680;23.364;2023-04-09T03:24:46;95334.00;;;6.90;99.29
5691;BME280;2870;42.680;23.364;2023-04-09T03:27:14;95339.00;;;6.79;100.00
5691;BME280;2870;42.680;23.364;2023-04-09T03:29:41;95348.19;;;6.93;99.48
5691;BME280;2870;42.680;23.364;2023-04-09T03:32:07;95339.06;;;6.92;99.80
5691;BME280;2870;42.680;23.364;2023-04-09T03:34:34;95340.84;;;6.89;100.00
5691;BME280;2870;42.680;23.364;2023-04-09T03:37:01;95352.72;;;6.77;100.00
5691;BME280;2870;42.680;23.364;2023-04-09T03:39:28;95351.81;;;6.87;100.00
5691;BME280;2870;42.680;23.364;2023-04-09T03:41:56;95343.81;;;6.78;100.00
5691;BME280;2870;42.680;23.364;2023-04-09T03:44:24;95348.34;;;6.81;100.00
5691;BME280;2870;42.680;23.364;2023-04-09T03:46:51;95341.41;;;6.69;100.00
5691;BME280;2870;42.680;23.364;2023-04-09T03:49:18;95345.69;;;6.89;100.00
5691;BME280;2870;42.680;23.364;2023-04-09T03:51:45;95341.09;;;6.73;100.00
5691;BME280;2870;42.680;23.364;2023-04-09T03:54:11;95349.75;;;6.69;100.00
5691;BME280;2870;42.680;23.364;2023-04-09T03:56:38;95351.34;;;6.83;100.00
5691;BME280;2870;42.680;23.364;2023-04-09T03:59:05;95348.09;;;6.79;100.00
5691;BME280;2870;42.680;23.364;2023-04-09T04:01:33;95346.16;;;6.74;100.00
5691;BME280;2870;42.680;23.364;2023-04-09T04:04:00;95350.09;;;6.98;100.00
5691;BME280;2870;42.680;23.364;2023-04-09T04:06:27;95355.16;;;6.99;100.00
5691;BME280;2870;42.680;23.364;2023-04-09T04:08:54;95355.69;;;6.98;100.00
5691;BME280;2870;42.680;23.364;2023-04-09T04:11:21;95365.78;;;7.01;99.89
5691;BME280;2870;42.680;23.364;2023-04-09T04:13:47;95358.19;;;7.01;99.87
5691;BME280;2870;42.680;23.364;2023-04-09T04:16:14;95360.50;;;6.97;100.00
5691;BME280;2870;42.680;23.364;2023-04-09T04:18:42;95362.97;;;6.87;100.00
5691;BME280;2870;42.680;23.364;2023-04-09T04:21:12;95357.22;;;6.99;100.00
5691;BME280;2870;42.680;23.364;2023-04-09T04:23:39;95358.72;;;7.00;100.00
5691;BME280;2870;42.680;23.364;2023-04-09T04:26:06;95358.25;;;6.96;100.00
5691;BME280;2870;42.680;23.364;2023-04-09T04:28:35;95366.53;;;7.01;100.00
5691;BME280;2870;42.680;23.364;2023-04-09T04:31:06;95364.09;;;6.79;100.00
5691;BME280;2870;42.680;23.364;2023-04-09T04:33:32;95367.47;;;6.90;100.00
5691;BME280;2870;42.680;23.364;2023-04-09T04:36:08;95365.56;;;6.99;100.00
5691;BME280;2870;42.680;23.364;2023-04-09T04:38:36;95373.44;;;7.13;98.88
5691;BME280;2870;42.680;23.364;2023-04-09T04:41:03;95371.03;;;7.23;98.94
5691;BME280;2870;42.680;23.364;2023-04-09T04:43:30;95371.78;;;7.24;98.83
5691;BME280;2870;42.680;23.364;2023-04-09T04:45:58;95366.94;;;7.24;99.18
5691;BME280;2870;42.680;23.364;2023-04-09T04:48:24;95374.78;;;7.26;98.83
5691;BME280;2870;42.680;23.364;2023-04-09T04:50:56;95366.88;;;7.43;98.56
5691;BME280;2870;42.680;23.364;2023-04-09T04:53:24;95369.28;;;7.65;98.41
5691;BME280;2870;42.680;23.364;2023-04-09T04:55:51;95374.34;;;7.67;97.46
5691;BME280;2870;42.680;23.364;2023-04-09T04:58:18;95371.88;;;7.63;97.20
5691;BME280;2870;42.680;23.364;2023-04-09T05:00:45;95371.31;;;7.65;97.66
5691;BME280;2870;42.680;23.364;2023-04-09T05:03:13;95356.84;;;7.66;97.09
5691;BME280;2870;42.680;23.364;2023-04-09T05:05:39;95377.59;;;7.84;97.50
5691;BME280;2870;42.680;23.364;2023-04-09T05:08:06;95375.88;;;8.21;94.95
5691;BME280;2870;42.680;23.364;2023-04-09T05:10:34;95377.06;;;8.12;95.37
5691;BME280;2870;42.680;23.364;2023-04-09T05:13:01;95376.63;;;8.21;95.46
5691;BME280;2870;42.680;23.364;2023-04-09T05:15:28;95387.50;;;8.25;95.49
5691;BME280;2870;42.680;23.364;2023-04-09T05:17:55;95378.38;;;8.38;94.95
5691;BME280;2870;42.680;23.364;2023-04-09T05:20:22;95387.06;;;8.47;93.80
5691;BME280;2870;42.680;23.364;2023-04-09T05:22:49;95380.19;;;8.35;93.86
5691;BME280;2870;42.680;23.364;2023-04-09T05:25:16;95384.28;;;8.47;92.53
5691;BME280;2870;42.680;23.364;2023-04-09T05:27:44;95381.91;;;8.52;91.78
5691;BME280;2870;42.680;23.364;2023-04-09T05:30:11;95386.09;;;8.45;91.85
5691;BME280;2870;42.680;23.364;2023-04-09T05:32:38;95383.09;;;8.43;91.38
5691;BME280;2870;42.680;23.364;2023-04-09T05:35:06;95379.41;;;8.61;89.92
5691;BME280;2870;42.680;23.364;2023-04-09T05:37:33;95377.31;;;8.41;90.98
5691;BME280;2870;42.680;23.364;2023-04-09T05:39:59;95381.47;;;8.47;90.98
5691;BME280;2870;42.680;23.364;2023-04-09T05:42:26;95387.94;;;8.42;90.52
5691;BME280;2870;42.680;23.364;2023-04-09T05:44:54;95386.44;;;8.41;90.35
5691;BME280;2870;42.680;23.364;2023-04-09T05:47:21;95386.16;;;8.66;89.40
5691;BME280;2870;42.680;23.364;2023-04-09T05:49:48;95394.13;;;8.75;89.43
5691;BME280;2870;42.680;23.364;2023-04-09T05:52:15;95385.88;;;9.03;88.47
5691;BME280;2870;42.680;23.364;2023-04-09T05:54:42;95387.13;;;8.82;88.77
5691;BME280;2870;42.680;23.364;2023-04-09T05:57:09;95384.75;;;9.07;87.77
5691;BME280;2870;42.680;23.364;2023-04-09T05:59:35;95391.59;;;9.19;87.95
5691;BME280;2870;42.680;23.364;2023-04-09T06:02:04;95387.66;;;9.35;84.55
5691;BME280;2870;42.680;23.364;2023-04-09T06:04:30;95379.88;;;9.20;85.67
5691;BME280;2870;42.680;23.364;2023-04-09T06:06:57;95387.31;;;9.18;87.11
5691;BME280;2870;42.680;23.364;2023-04-09T06:09:24;95397.50;;;9.49;84.72
5691;BME280;2870;42.680;23.364;2023-04-09T06:11:52;95400.41;;;9.86;84.46
5691;BME280;2870;42.680;23.364;2023-04-09T06:14:19;95393.13;;;9.62;82.51
5691;BME280;2870;42.680;23.364;2023-04-09T06:16:46;95394.22;;;9.79;82.31
5691;BME280;2870;42.680;23.364;2023-04-09T06:19:16;95400.31;;;9.70;83.20
5691;BME280;2870;42.680;23.364;2023-04-09T06:21:42;95400.97;;;9.63;82.88
5691;BME280;2870;42.680;23.364;2023-04-09T06:24:09;95396.59;;;9.75;83.21
5691;BME280;2870;42.680;23.364;2023-04-09T06:26:36;95398.25;;;9.50;83.56
5691;BME280;2870;42.680;23.364;2023-04-09T06:29:03;95399.16;;;9.66;83.03
5691;BME280;2870;42.680;23.364;2023-04-09T06:31:30;95396.81;;;9.98;81.93
5691;BME280;2870;42.680;23.364;2023-04-09T06:33:56;95390.19;;;10.17;81.56
5691;BME280;2870;42.680;23.364;2023-04-09T06:36:24;95393.47;;;10.07;81.06
5691;BME280;2870;42.680;23.364;2023-04-09T06:38:52;95410.97;;;9.93;80.03
5691;BME280;2870;42.680;23.364;2023-04-09T06:41:19;95396.25;;;10.00;80.71
5691;BME280;2870;42.680;23.364;2023-04-09T06:43:46;95406.78;;;10.35;79.42
5691;BME280;2870;42.680;23.364;2023-04-09T06:46:13;95413.06;;;9.79;78.70
5691;BME280;2870;42.680;23.364;2023-04-09T06:48:42;95408.91;;;9.72;78.91
5691;BME280;2870;42.680;23.364;2023-04-09T06:51:09;95403.69;;;9.97;79.48
5691;BME280;2870;42.680;23.364;2023-04-09T06:53:38;95408.31;;;10.16;78.12
5691;BME280;2870;42.680;23.364;2023-04-09T06:56:05;95407.53;;;10.36;76.84
5691;BME280;2870;42.680;23.364;2023-04-09T06:58:32;95413.63;;;10.55;75.99
5691;BME280;2870;42.680;23.364;2023-04-09T07:00:58;95421.09;;;10.53;76.27
5691;BME280;2870;42.680;23.364;2023-04-09T07:03:25;95412.41;;;10.15;77.46
5691;BME280;2870;42.680;23.364;2023-04-09T07:05:53;95411.00;;;10.00;77.54
5691;BME280;2870;42.680;23.364;2023-04-09T07:08:19;95413.81;;;9.79;77.02
5691;BME280;2870;42.680;23.364;2023-04-09T07:10:49;95418.19;;;9.88;77.57
5691;BME280;2870;42.680;23.364;2023-04-09T07:13:16;95410.84;;;10.06;77.37
5691;BME280;2870;42.680;23.364;2023-04-09T07:15:42;95415.34;;;10.30;76.32
5691;BME280;2870;42.680;23.364;2023-04-09T07:18:09;95414.00;;;10.59;75.17
5691;BME280;2870;42.680;23.364;2023-04-09T07:20:36;95412.69;;;10.60;75.01
5691;BME280;2870;42.680;23.364;2023-04-09T07:23:03;95417.09;;;10.77;74.62
5691;BME280;2870;42.680;23.364;2023-04-09T07:25:30;95421.78;;;10.82;73.50
5691;BME280;2870;42.680;23.364;2023-04-09T07:27:59;95421.09;;;10.53;73.36
5691;BME280;2870;42.680;23.364;2023-04-09T07:30:26;95425.81;;;10.66;73.08
5691;BME280;2870;42.680;23.364;2023-04-09T07:32:53;95403.97;;;10.72;72.28
5691;BME280;2870;42.680;23.364;2023-04-09T07:35:20;95412.81;;;10.47;70.82
5691;BME280;2870;42.680;23.364;2023-04-09T07:37:47;95422.56;;;9.97;72.34
5691;BME280;2870;42.680;23.364;2023-04-09T07:40:14;95420.34;;;10.52;71.39
5691;BME280;2870;42.680;23.364;2023-04-09T07:42:41;95428.78;;;10.96;68.99
5691;BME280;2870;42.680;23.364;2023-04-09T07:45:09;95422.03;;;10.92;69.74
5691;BME280;2870;42.680;23.364;2023-04-09T07:47:37;95433.91;;;10.77;67.88
5691;BME280;2870;42.680;23.364;2023-04-09T07:50:06;95434.16;;;10.50;69.40
5691;BME280;2870;42.680;23.364;2023-04-09T07:52:33;95418.59;;;10.21;69.32
5691;BME280;2870;42.680;23.364;2023-04-09T07:55:00;95438.88;;;10.27;69.79
5691;BME280;2870;42.680;23.364;2023-04-09T07:57:26;95430.00;;;10.72;68.50
5691;BME280;2870;42.680;23.364;2023-04-09T07:59:53;95440.28;;;10.77;69.42
5691;BME280;2870;42.680;23.364;2023-04-09T08:02:22;95445.97;;;10.93;68.57
5691;BME280;2870;42.680;23.364;2023-04-09T08:04:49;95453.47;;;10.98;68.62
5691;BME280;2870;42.680;23.364;2023-04-09T08:07:16;95437.16;;;10.52;69.85
5691;BME280;2870;42.680;23.364;2023-04-09T08:09:42;95454.75;;;10.53;70.76
5691;BME280;2870;42.680;23.364;2023-04-09T08:12:10;95450.09;;;10.99;70.41
5691;BME280;2870;42.680;23.364;2023-04-09T08:14:37;95452.25;;;11.14;69.05
5691;BME280;2870;42.680;23.364;2023-04-09T08:17:03;95445.81;;;11.06;69.47
5691;BME280;2870;42.680;23.364;2023-04-09T08:19:32;95449.13;;;10.89;69.51
5691;BME280;2870;42.680;23.364;2023-04-09T08:22:00;95449.47;;;10.78;70.33
5691;BME280;2870;42.680;23.364;2023-04-09T08:24:26;95450.94;;;11.15;69.34
5691;BME280;2870;42.680;23.364;2023-04-09T08:26:54;95457.06;;;11.73;68.00
5691;BME280;2870;42.680;23.364;2023-04-09T08:29:20;95448.03;;;11.51;67.11
5691;BME280;2870;42.680;23.364;2023-04-09T08:31:47;95463.03;;;11.46;67.11
5691;BME280;2870;42.680;23.364;2023-04-09T08:34:14;95443.75;;;10.99;68.74
5691;BME280;2870;42.680;23.364;2023-04-09T08:36:46;95450.16;;;10.71;69.80
5691;BME280;2870;42.680;23.364;2023-04-09T08:39:14;95447.50;;;11.01;69.79
5691;BME280;2870;42.680;23.364;2023-04-09T08:41:44;95459.56;;;10.81;69.54
5691;BME280;2870;42.680;23.364;2023-04-09T08:44:12;95449.44;;;10.42;70.94
5691;BME280;2870;42.680;23.364;2023-04-09T08:46:38;95449.16;;;10.60;70.60
5691;BME280;2870;42.680;23.364;2023-04-09T08:49:07;95450.84;;;11.00;68.93
5691;BME280;2870;42.680;23.364;2023-04-09T08:51:34;95440.66;;;10.74;69.51
5691;BME280;2870;42.680;23.364;2023-04-09T08:54:06;95443.59;;;11.04;70.06
5691;BME280;2870;42.680;23.364;2023-04-09T08:56:33;95441.47;;;10.53;69.14
5691;BME280;2870;42.680;23.364;2023-04-09T08:59:00;95440.84;;;10.76;70.56
5691;BME280;2870;42.680;23.364;2023-04-09T09:01:27;95433.22;;;11.51;69.27
5691;BME280;2870;42.680;23.364;2023-04-09T09:03:56;95437.63;;;12.20;66.50
5691;BME280;2870;42.680;23.364;2023-04-09T09:06:25;95440.41;;;12.43;64.51
5691;BME280;2870;42.680;23.364;2023-04-09T09:09:02;95437.31;;;10.83;69.70
5691;BME280;2870;42.680;23.364;2023-04-09T09:11:32;95438.78;;;10.76;70.15
5691;BME280;2870;42.680;23.364;2023-04-09T09:14:00;95426.72;;;10.97;70.51
5691;BME280;2870;42.680;23.364;2023-04-09T09:16:27;95425.19;;;11.47;69.68
5691;BME280;2870;42.680;23.364;2023-04-09T09:18:54;95419.53;;;11.39;68.60
5691;BME280;2870;42.680;23.364;2023-04-09T09:21:22;95421.84;;;11.64;68.60
5691;BME280;2870;42.680;23.364;2023-04-09T09:23:49;95422.91;;;11.30;69.67
5691;BME280;2870;42.680;23.364;2023-04-09T09:26:18;95419.09;;;11.12;69.28
5691;BME280;2870;42.680;23.364;2023-04-09T09:28:48;95422.56;;;11.49;70.19
5691;BME280;2870;42.680;23.364;2023-04-09T09:31:16;95418.09;;;11.69;68.04
5691;BME280;2870;42.680;23.364;2023-04-09T09:33:44;95401.25;;;12.23;67.17
5691;BME280;2870;42.680;23.364;2023-04-09T09:36:11;95407.59;;;13.42;62.86
5691;BME280;2870;42.680;23.364;2023-04-09T09:38:52;95410.78;;;12.98;64.43
5691;BME280;2870;42.680;23.364;2023-04-09T09:41:20;95412.19;;;13.30;63.20
5691;BME280;2870;42.680;23.364;2023-04-09T09:43:49;95405.88;;;13.79;60.25
5691;BME280;2870;42.680;23.364;2023-04-09T09:46:16;95396.03;;;13.30;61.60
5691;BME280;2870;42.680;23.364;2023-04-09T09:48:43;95393.66;;;13.51;60.26
5691;BME280;2870;42.680;23.364;2023-04-09T09:51:14;95401.75;;;14.22;58.37
5691;BME280;2870;42.680;23.364;2023-04-09T09:53:43;95395.84;;;14.28;57.59
5691;BME280;2870;42.680;23.364;2023-04-09T09:56:13;95389.50;;;14.45;57.94
5691;BME280;2870;42.680;23.364;2023-04-09T09:58:44;95395.44;;;14.14;56.35
5691;BME280;2870;42.680;23.364;2023-04-09T10:01:15;95388.19;;;14.98;52.78
5691;BME280;2870;42.680;23.364;2023-04-09T10:03:44;95391.34;;;16.20;54.42
5691;BME280;2870;42.680;23.364;2023-04-09T10:06:12;95401.31;;;14.68;54.58
5691;BME280;2870;42.680;23.364;2023-04-09T10:08:41;95393.25;;;15.44;55.03
5691;BME280;2870;42.680;23.364;2023-04-09T10:11:08;95383.56;;;16.01;51.40
5691;BME280;2870;42.680;23.364;2023-04-09T10:13:39;95376.78;;;16.33;53.41
5691;BME280;2870;42.680;23.364;2023-04-09T10:16:07;95387.88;;;15.65;50.69
5691;BME280;2870;42.680;23.364;2023-04-09T10:18:37;95381.22;;;15.53;55.12
5691;BME280;2870;42.680;23.364;2023-04-09T10:21:08;95375.03;;;15.10;53.84
5691;BME280;2870;42.680;23.364;2023-04-09T10:23:40;95370.34;;;15.22;52.17
5691;BME280;2870;42.680;23.364;2023-04-09T10:26:07;95360.97;;;14.75;53.26
5691;BME280;2870;42.680;23.364;2023-04-09T10:28:36;95366.81;;;15.31;52.88
5691;BME280;2870;42.680;23.364;2023-04-09T10:31:04;95356.44;;;15.98;52.17
5691;BME280;2870;42.680;23.364;2023-04-09T10:33:31;95375.38;;;16.80;48.24
5691;BME280;2870;42.680;23.364;2023-04-09T10:36:03;95365.22;;;16.77;47.85
5691;BME280;2870;42.680;23.364;2023-04-09T10:38:35;95367.84;;;15.80;49.05
5691;BME280;2870;42.680;23.364;2023-04-09T10:41:13;95358.78;;;15.55;49.74
5691;BME280;2870;42.680;23.364;2023-04-09T10:43:41;95364.53;;;14.93;51.51
5691;BME280;2870;42.680;23.364;2023-04-09T10:46:26;95354.56;;;15.73;50.29
5691;BME280;2870;42.680;23.364;2023-04-09T10:49:14;95348.94;;;14.75;51.34
5691;BME280;2870;42.680;23.364;2023-04-09T10:51:47;95348.38;;;14.34;53.01
5691;BME280;2870;42.680;23.364;2023-04-09T10:54:40;95353.31;;;14.51;53.01
5691;BME280;2870;42.680;23.364;2023-04-09T10:57:18;95340.56;;;15.38;53.59
5691;BME280;2870;42.680;23.364;2023-04-09T10:59:48;95335.09;;;15.77;51.34
5691;BME280;2870;42.680;23.364;2023-04-09T11:05:30;95323.03;;;14.51;52.20
5691;BME280;2870;42.680;23.364;2023-04-09T11:08:03;95325.16;;;14.09;52.72
5691;BME280;2870;42.680;23.364;2023-04-09T11:10:31;95324.47;;;14.00;53.92
5691;BME280;2870;42.680;23.364;2023-04-09T11:12:58;95321.22;;;13.87;54.62
5691;BME280;2870;42.680;23.364;2023-04-09T11:15:25;95318.81;;;13.00;56.60
5691;BME280;2870;42.680;23.364;2023-04-09T11:17:53;95318.53;;;13.14;56.95
5691;BME280;2870;42.680;23.364;2023-04-09T11:20:21;95297.59;;;13.32;57.72
5691;BME280;2870;42.680;23.364;2023-04-09T11:22:50;95320.22;;;13.17;61.38
5691;BME280;2870;42.680;23.364;2023-04-09T11:25:20;95310.31;;;13.41;58.66
5691;BME280;2870;42.680;23.364;2023-04-09T11:27:47;95310.44;;;13.18;57.01
5691;BME280;2870;42.680;23.364;2023-04-09T11:30:15;95312.50;;;13.17;59.26
5691;BME280;2870;42.680;23.364;2023-04-09T11:32:43;95301.28;;;13.10;58.62
5691;BME280;2870;42.680;23.364;2023-04-09T11:35:10;95305.19;;;13.14;60.03
5691;BME280;2870;42.680;23.364;2023-04-09T11:37:39;95303.84;;;12.90;58.47
5691;BME280;2870;42.680;23.364;2023-04-09T11:40:07;95300.66;;;12.94;57.38
5691;BME280;2870;42.680;23.364;2023-04-09T11:42:35;95300.09;;;13.20;57.48
5691;BME280;2870;42.680;23.364;2023-04-09T11:45:03;95301.84;;;13.66;54.06
5691;BME280;2870;42.680;23.364;2023-04-09T11:47:30;95301.44;;;13.69;53.79
5691;BME280;2870;42.680;23.364;2023-04-09T11:49:57;95299.16;;;13.50;52.64
5691;BME280;2870;42.680;23.364;2023-04-09T11:52:24;95298.00;;;13.53;51.56
5691;BME280;2870;42.680;23.364;2023-04-09T11:54:52;95300.28;;;13.72;54.95
5691;BME280;2870;42.680;23.364;2023-04-09T11:57:19;95296.44;;;13.60;52.85
5691;BME280;2870;42.680;23.364;2023-04-09T11:59:47;95288.69;;;13.68;49.92
5691;BME280;2870;42.680;23.364;2023-04-09T12:02:16;95285.53;;;13.82;47.66
5691;BME280;2870;42.680;23.364;2023-04-09T12:04:48;95287.00;;;14.08;47.20
5691;BME280;2870;42.680;23.364;2023-04-09T12:07:15;95281.00;;;14.21;45.89
5691;BME280;2870;42.680;23.364;2023-04-09T12:09:46;95283.47;;;13.82;45.70
5691;BME280;2870;42.680;23.364;2023-04-09T12:12:17;95282.97;;;13.76;46.03
5691;BME280;2870;42.680;23.364;2023-04-09T12:14:45;95280.78;;;13.67;46.17
5691;BME280;2870;42.680;23.364;2023-04-09T12:17:13;95287.84;;;13.75;46.58
5691;BME280;2870;42.680;23.364;2023-04-09T12:19:40;95269.63;;;13.94;45.91
5691;BME280;2870;42.680;23.364;2023-04-09T12:22:07;95275.84;;;13.75;45.80
5691;BME280;2870;42.680;23.364;2023-04-09T12:24:33;95268.00;;;14.25;45.37
5691;BME280;2870;42.680;23.364;2023-04-09T12:27:00;95280.41;;;14.57;48.30
5691;BME280;2870;42.680;23.364;2023-04-09T12:29:27;95270.91;;;14.52;47.69
5691;BME280;2870;42.680;23.364;2023-04-09T12:31:54;95274.34;;;14.78;46.37
5691;BME280;2870;42.680;23.364;2023-04-09T12:34:22;95265.81;;;14.16;45.27
5691;BME280;2870;42.680;23.364;2023-04-09T12:36:49;95263.34;;;14.20;46.25
5691;BME280;2870;42.680;23.364;2023-04-09T12:39:16;95264.97;;;14.41;45.01
5691;BME280;2870;42.680;23.364;2023-04-09T12:41:45;95256.59;;;13.81;47.28
5691;BME280;2870;42.680;23.364;2023-04-09T12:44:12;95261.19;;;14.11;47.25
5691;BME280;2870;42.680;23.364;2023-04-09T12:46:39;95261.50;;;14.15;46.90
5691;BME280;2870;42.680;23.364;2023-04-09T12:49:05;95261.59;;;14.42;46.59
5691;BME280;2870;42.680;23.364;2023-04-09T12:51:33;95263.69;;;14.24;47.13
5691;BME280;2870;42.680;23.364;2023-04-09T12:54:01;95262.41;;;14.70;47.28
5691;BME280;2870;42.680;23.364;2023-04-09T12:56:28;95239.34;;;14.29;47.19
5691;BME280;2870;42.680;23.364;2023-04-09T12:58:55;95250.38;;;14.00;47.80
5691;BME280;2870;42.680;23.364;2023-04-09T13:01:22;95247.06;;;14.11;47.93
5691;BME280;2870;42.680;23.364;2023-04-09T13:03:48;95250.56;;;14.37;47.77
5691;BME280;2870;42.680;23.364;2023-04-09T13:06:15;95249.63;;;14.34;47.83
5691;BME280;2870;42.680;23.364;2023-04-09T13:08:44;95247.47;;;14.42;47.84
5691;BME280;2870;42.680;23.364;2023-04-09T13:11:11;95247.25;;;14.30;47.85
5691;BME280;2870;42.680;23.364;2023-04-09T13:13:40;95247.88;;;14.39;48.05
5691;BME280;2870;42.680;23.364;2023-04-09T13:16:07;95240.44;;;13.82;49.46
5691;BME280;2870;42.680;23.364;2023-04-09T13:18:34;95252.53;;;13.74;49.80
5691;BME280;2870;42.680;23.364;2023-04-09T13:21:01;95263.47;;;13.70;50.31
5691;BME280;2870;42.680;23.364;2023-04-09T13:23:28;95254.84;;;13.18;53.26